Terminal Aerodrome Forecast
Issued by NWS Grand Forks, ND

Home | Current Version | Previous Version | Text Only | Print | Product List | Glossary Off
Versions: 1 2 3 4 5 6 7 8 9 10 11 12 13 14 15 16 17 18 19

000
FTUS43 KFGF 232100 AAC
TAFFAR
TAF AMD
KFAR 232103Z 2321/2418 13020G30KT P6SM -RA OVC025
      TEMPO 2321/2324 4SM -RA BKN015 OVC020
     FM240000 12020G28KT P6SM -RA OVC025
     FM240700 12012KT P6SM BKN025=

USA.gov is the U.S. government's official web portal to all federal, state and local government web resources and services.